sensor_id;sensor_type;location;lat;lon;timestamp;temperature;humidity
8043;DHT22;4064;48.132;11.366;2022-12-07T00:01:13;2.50;99.90
8043;DHT22;4064;48.132;11.366;2022-12-07T00:03:41;2.50;99.90
8043;DHT22;4064;48.132;11.366;2022-12-07T00:06:09;2.50;99.90
8043;DHT22;4064;48.132;11.366;2022-12-07T00:08:35;2.50;99.90
8043;DHT22;4064;48.132;11.366;2022-12-07T00:11:05;2.60;99.90
8043;DHT22;4064;48.132;11.366;2022-12-07T00:13:32;2.50;99.90
8043;DHT22;4064;48.132;11.366;2022-12-07T00:16:04;2.50;99.90
8043;DHT22;4064;48.132;11.366;2022-12-07T00:18:30;2.50;99.90
8043;DHT22;4064;48.132;11.366;2022-12-07T00:21:06;2.50;99.90
8043;DHT22;4064;48.132;11.366;2022-12-07T00:23:33;2.50;99.90
8043;DHT22;4064;48.132;11.366;2022-12-07T00:26:19;2.50;99.90
8043;DHT22;4064;48.132;11.366;2022-12-07T00:28:54;2.40;99.90
8043;DHT22;4064;48.132;11.366;2022-12-07T00:31:22;2.40;99.90
8043;DHT22;4064;48.132;11.366;2022-12-07T00:33:48;2.40;99.90
8043;DHT22;4064;48.132;11.366;2022-12-07T00:36:17;2.40;99.90
8043;DHT22;4064;48.132;11.366;2022-12-07T00:38:43;2.40;99.90
8043;DHT22;4064;48.132;11.366;2022-12-07T00:41:12;2.40;99.90
8043;DHT22;4064;48.132;11.366;2022-12-07T00:43:39;2.30;99.90
8043;DHT22;4064;48.132;11.366;2022-12-07T00:46:05;2.30;99.90
8043;DHT22;4064;48.132;11.366;2022-12-07T00:48:31;2.40;99.90
8043;DHT22;4064;48.132;11.366;2022-12-07T00:50:57;2.30;99.90
8043;DHT22;4064;48.132;11.366;2022-12-07T00:53:23;2.30;99.90
8043;DHT22;4064;48.132;11.366;2022-12-07T00:55:49;2.30;99.90
8043;DHT22;4064;48.132;11.366;2022-12-07T00:58:15;2.30;99.90
8043;DHT22;4064;48.132;11.366;2022-12-07T01:00:42;2.30;99.90
8043;DHT22;4064;48.132;11.366;2022-12-07T01:03:09;2.30;99.90
8043;DHT22;4064;48.132;11.366;2022-12-07T01:05:36;2.30;99.90
8043;DHT22;4064;48.132;11.366;2022-12-07T01:08:01;2.30;99.90
8043;DHT22;4064;48.132;11.366;2022-12-07T01:10:27;2.20;99.90
8043;DHT22;4064;48.132;11.366;2022-12-07T01:12:54;2.30;99.90
8043;DHT22;4064;48.132;11.366;2022-12-07T01:15:19;2.20;99.90
8043;DHT22;4064;48.132;11.366;2022-12-07T01:17:45;2.20;99.90
8043;DHT22;4064;48.132;11.366;2022-12-07T01:20:11;2.20;99.90
8043;DHT22;4064;48.132;11.366;2022-12-07T01:22:41;2.30;99.90
8043;DHT22;4064;48.132;11.366;2022-12-07T01:25:08;2.30;99.90
8043;DHT22;4064;48.132;11.366;2022-12-07T01:27:35;2.30;99.90
8043;DHT22;4064;48.132;11.366;2022-12-07T01:30:02;2.20;99.90
8043;DHT22;4064;48.132;11.366;2022-12-07T01:32:28;2.20;99.90
8043;DHT22;4064;48.132;11.366;2022-12-07T01:34:54;2.20;99.90
8043;DHT22;4064;48.132;11.366;2022-12-07T01:37:20;2.20;99.90
8043;DHT22;4064;48.132;11.366;2022-12-07T01:39:48;2.20;99.90
8043;DHT22;4064;48.132;11.366;2022-12-07T01:42:14;2.20;99.90
8043;DHT22;4064;48.132;11.366;2022-12-07T01:47:57;2.20;99.90
8043;DHT22;4064;48.132;11.366;2022-12-07T01:50:26;2.10;99.90
8043;DHT22;4064;48.132;11.366;2022-12-07T01:52:55;2.20;99.90
8043;DHT22;4064;48.132;11.366;2022-12-07T01:55:22;2.20;99.90
8043;DHT22;4064;48.132;11.366;2022-12-07T01:57:50;2.10;99.90
8043;DHT22;4064;48.132;11.366;2022-12-07T02:00:17;2.20;99.90
8043;DHT22;4064;48.132;11.366;2022-12-07T02:02:53;2.10;99.90
8043;DHT22;4064;48.132;11.366;2022-12-07T02:05:20;2.10;99.90
8043;DHT22;4064;48.132;11.366;2022-12-07T02:07:47;2.10;99.90
8043;DHT22;4064;48.132;11.366;2022-12-07T02:10:20;2.10;99.90
8043;DHT22;4064;48.132;11.366;2022-12-07T02:12:49;2.20;99.90
8043;DHT22;4064;48.132;11.366;2022-12-07T02:15:16;2.10;99.90
8043;DHT22;4064;48.132;11.366;2022-12-07T02:18:24;2.20;99.90
8043;DHT22;4064;48.132;11.366;2022-12-07T02:25:55;2.10;99.90
8043;DHT22;4064;48.132;11.366;2022-12-07T02:31:40;2.10;99.90
8043;DHT22;4064;48.132;11.366;2022-12-07T02:34:18;2.10;99.90
8043;DHT22;4064;48.132;11.366;2022-12-07T02:36:51;2.10;99.90
8043;DHT22;4064;48.132;11.366;2022-12-07T02:39:43;2.10;99.90
8043;DHT22;4064;48.132;11.366;2022-12-07T02:42:18;2.10;99.90
8043;DHT22;4064;48.132;11.366;2022-12-07T02:44:47;2.20;99.90
8043;DHT22;4064;48.132;11.366;2022-12-07T02:47:15;2.10;99.90
8043;DHT22;4064;48.132;11.366;2022-12-07T02:49:42;2.10;99.90
8043;DHT22;4064;48.132;11.366;2022-12-07T02:52:07;2.10;99.90
8043;DHT22;4064;48.132;11.366;2022-12-07T02:54:33;2.10;99.90
8043;DHT22;4064;48.132;11.366;2022-12-07T03:05:53;2.10;99.90
8043;DHT22;4064;48.132;11.366;2022-12-07T03:11:09;2.10;99.90
8043;DHT22;4064;48.132;11.366;2022-12-07T03:13:45;2.10;99.90
8043;DHT22;4064;48.132;11.366;2022-12-07T03:16:20;2.10;99.90
8043;DHT22;4064;48.132;11.366;2022-12-07T03:21:22;2.10;99.90
8043;DHT22;4064;48.132;11.366;2022-12-07T03:23:54;2.10;99.90
8043;DHT22;4064;48.132;11.366;2022-12-07T03:26:24;2.10;99.90
8043;DHT22;4064;48.132;11.366;2022-12-07T03:28:55;2.10;99.90
8043;DHT22;4064;48.132;11.366;2022-12-07T03:31:39;2.10;99.90
8043;DHT22;4064;48.132;11.366;2022-12-07T03:34:09;2.10;99.90
8043;DHT22;4064;48.132;11.366;2022-12-07T03:39:33;2.10;99.90
8043;DHT22;4064;48.132;11.366;2022-12-07T03:42:00;2.10;99.90
8043;DHT22;4064;48.132;11.366;2022-12-07T03:44:27;2.10;99.90
8043;DHT22;4064;48.132;11.366;2022-12-07T03:47:16;2.10;99.90
8043;DHT22;4064;48.132;11.366;2022-12-07T03:50:00;2.10;99.90
8043;DHT22;4064;48.132;11.366;2022-12-07T03:52:39;2.10;99.90
8043;DHT22;4064;48.132;11.366;2022-12-07T03:55:25;2.20;99.90
8043;DHT22;4064;48.132;11.366;2022-12-07T03:57:56;2.10;99.90
8043;DHT22;4064;48.132;11.366;2022-12-07T04:00:24;2.20;99.90
8043;DHT22;4064;48.132;11.366;2022-12-07T04:02:54;2.20;99.90
8043;DHT22;4064;48.132;11.366;2022-12-07T04:05:20;2.10;99.90
8043;DHT22;4064;48.132;11.366;2022-12-07T04:07:45;2.10;99.90
8043;DHT22;4064;48.132;11.366;2022-12-07T04:10:11;2.10;99.90
8043;DHT22;4064;48.132;11.366;2022-12-07T04:12:37;2.10;99.90
8043;DHT22;4064;48.132;11.366;2022-12-07T04:15:03;2.10;99.90
8043;DHT22;4064;48.132;11.366;2022-12-07T04:17:29;2.10;99.90
8043;DHT22;4064;48.132;11.366;2022-12-07T04:19:58;2.00;99.90
8043;DHT22;4064;48.132;11.366;2022-12-07T04:22:24;2.00;99.90
8043;DHT22;4064;48.132;11.366;2022-12-07T04:24:49;2.00;99.90
8043;DHT22;4064;48.132;11.366;2022-12-07T04:27:15;2.10;99.90
8043;DHT22;4064;48.132;11.366;2022-12-07T04:29:41;2.10;99.90
8043;DHT22;4064;48.132;11.366;2022-12-07T04:32:06;2.00;99.90
8043;DHT22;4064;48.132;11.366;2022-12-07T04:34:32;2.00;99.90
8043;DHT22;4064;48.132;11.366;2022-12-07T04:36:57;2.00;99.90
8043;DHT22;4064;48.132;11.366;2022-12-07T04:39:28;2.00;99.90
8043;DHT22;4064;48.132;11.366;2022-12-07T04:41:54;2.00;99.90
8043;DHT22;4064;48.132;11.366;2022-12-07T04:44:20;2.00;99.90
8043;DHT22;4064;48.132;11.366;2022-12-07T04:46:46;1.90;99.90
8043;DHT22;4064;48.132;11.366;2022-12-07T04:49:13;1.90;99.90
8043;DHT22;4064;48.132;11.366;2022-12-07T04:51:39;1.90;99.90
8043;DHT22;4064;48.132;11.366;2022-12-07T04:54:05;1.90;99.90
8043;DHT22;4064;48.132;11.366;2022-12-07T04:56:32;1.90;99.90
8043;DHT22;4064;48.132;11.366;2022-12-07T04:58:57;1.80;99.90
8043;DHT22;4064;48.132;11.366;2022-12-07T05:01:24;1.90;99.90
8043;DHT22;4064;48.132;11.366;2022-12-07T05:03:50;1.80;99.90
8043;DHT22;4064;48.132;11.366;2022-12-07T05:06:16;1.80;99.90
8043;DHT22;4064;48.132;11.366;2022-12-07T05:08:42;1.80;99.90
8043;DHT22;4064;48.132;11.366;2022-12-07T05:11:09;1.80;99.90
8043;DHT22;4064;48.132;11.366;2022-12-07T05:13:55;1.80;99.90
8043;DHT22;4064;48.132;11.366;2022-12-07T05:16:21;1.70;99.90
8043;DHT22;4064;48.132;11.366;2022-12-07T05:18:47;1.70;99.90
8043;DHT22;4064;48.132;11.366;2022-12-07T05:21:12;1.70;99.90
8043;DHT22;4064;48.132;11.366;2022-12-07T05:23:38;1.70;99.90
8043;DHT22;4064;48.132;11.366;2022-12-07T05:26:03;1.70;99.90
8043;DHT22;4064;48.132;11.366;2022-12-07T05:28:29;1.70;99.90
8043;DHT22;4064;48.132;11.366;2022-12-07T05:30:55;1.70;99.90
8043;DHT22;4064;48.132;11.366;2022-12-07T05:33:20;1.70;99.90
8043;DHT22;4064;48.132;11.366;2022-12-07T05:35:46;1.70;99.90
8043;DHT22;4064;48.132;11.366;2022-12-07T05:38:11;1.70;99.90
8043;DHT22;4064;48.132;11.366;2022-12-07T05:40:37;1.70;99.90
8043;DHT22;4064;48.132;11.366;2022-12-07T05:43:02;1.70;99.90
8043;DHT22;4064;48.132;11.366;2022-12-07T05:45:28;1.70;99.90
8043;DHT22;4064;48.132;11.366;2022-12-07T05:47:54;1.70;99.90
8043;DHT22;4064;48.132;11.366;2022-12-07T05:50:19;1.70;99.90
8043;DHT22;4064;48.132;11.366;2022-12-07T05:52:45;1.70;99.90
8043;DHT22;4064;48.132;11.366;2022-12-07T05:55:10;1.70;99.90
8043;DHT22;4064;48.132;11.366;2022-12-07T05:57:36;1.70;99.90
8043;DHT22;4064;48.132;11.366;2022-12-07T06:00:03;1.70;99.90
8043;DHT22;4064;48.132;11.366;2022-12-07T06:02:28;1.70;99.90
8043;DHT22;4064;48.132;11.366;2022-12-07T06:04:54;1.70;99.90
8043;DHT22;4064;48.132;11.366;2022-12-07T06:07:20;1.70;99.90
8043;DHT22;4064;48.132;11.366;2022-12-07T06:09:45;1.70;99.90
8043;DHT22;4064;48.132;11.366;2022-12-07T06:12:12;1.70;99.90
8043;DHT22;4064;48.132;11.366;2022-12-07T06:14:56;1.70;99.90
8043;DHT22;4064;48.132;11.366;2022-12-07T06:17:22;1.60;99.90
8043;DHT22;4064;48.132;11.366;2022-12-07T06:19:47;1.70;99.90
8043;DHT22;4064;48.132;11.366;2022-12-07T06:22:13;1.60;99.90
8043;DHT22;4064;48.132;11.366;2022-12-07T06:24:39;1.70;99.90
8043;DHT22;4064;48.132;11.366;2022-12-07T06:27:05;1.60;99.90
8043;DHT22;4064;48.132;11.366;2022-12-07T06:29:31;1.60;99.90
8043;DHT22;4064;48.132;11.366;2022-12-07T06:31:57;1.60;99.90
8043;DHT22;4064;48.132;11.366;2022-12-07T06:34:24;1.60;99.90
8043;DHT22;4064;48.132;11.366;2022-12-07T06:36:50;1.50;99.90
8043;DHT22;4064;48.132;11.366;2022-12-07T06:39:25;1.60;99.90
8043;DHT22;4064;48.132;11.366;2022-12-07T06:41:51;1.60;99.90
8043;DHT22;4064;48.132;11.366;2022-12-07T06:44:18;1.60;99.90
8043;DHT22;4064;48.132;11.366;2022-12-07T06:46:44;1.60;99.90
8043;DHT22;4064;48.132;11.366;2022-12-07T06:49:10;1.60;99.90
8043;DHT22;4064;48.132;11.366;2022-12-07T06:51:35;1.60;99.90
8043;DHT22;4064;48.132;11.366;2022-12-07T06:54:04;1.60;99.90
8043;DHT22;4064;48.132;11.366;2022-12-07T06:56:30;1.60;99.90
8043;DHT22;4064;48.132;11.366;2022-12-07T06:58:56;1.60;99.90
8043;DHT22;4064;48.132;11.366;2022-12-07T07:01:21;1.60;99.90
8043;DHT22;4064;48.132;11.366;2022-12-07T07:03:47;1.60;99.90
8043;DHT22;4064;48.132;11.366;2022-12-07T07:06:13;1.60;99.90
8043;DHT22;4064;48.132;11.366;2022-12-07T07:08:39;1.60;99.90
8043;DHT22;4064;48.132;11.366;2022-12-07T07:11:05;1.60;99.90
8043;DHT22;4064;48.132;11.366;2022-12-07T07:13:32;1.60;99.90
8043;DHT22;4064;48.132;11.366;2022-12-07T07:15:57;1.60;99.90
8043;DHT22;4064;48.132;11.366;2022-12-07T07:18:23;1.60;99.90
8043;DHT22;4064;48.132;11.366;2022-12-07T07:20:50;1.60;99.90
8043;DHT22;4064;48.132;11.366;2022-12-07T07:23:16;1.60;99.90
8043;DHT22;4064;48.132;11.366;2022-12-07T07:25:42;1.50;99.90
8043;DHT22;4064;48.132;11.366;2022-12-07T07:28:07;1.60;99.90
8043;DHT22;4064;48.132;11.366;2022-12-07T07:30:33;1.60;99.90
8043;DHT22;4064;48.132;11.366;2022-12-07T07:33:00;1.60;99.90
8043;DHT22;4064;48.132;11.366;2022-12-07T07:35:27;1.60;99.90
8043;DHT22;4064;48.132;11.366;2022-12-07T07:37:53;1.60;99.90
8043;DHT22;4064;48.132;11.366;2022-12-07T07:40:18;1.50;99.90
8043;DHT22;4064;48.132;11.366;2022-12-07T07:42:50;1.60;99.90
8043;DHT22;4064;48.132;11.366;2022-12-07T07:45:16;1.50;99.90
8043;DHT22;4064;48.132;11.366;2022-12-07T07:47:42;1.60;99.90
8043;DHT22;4064;48.132;11.366;2022-12-07T07:50:08;1.60;99.90
8043;DHT22;4064;48.132;11.366;2022-12-07T07:52:34;1.60;99.90
8043;DHT22;4064;48.132;11.366;2022-12-07T07:54:59;1.60;99.90
8043;DHT22;4064;48.132;11.366;2022-12-07T07:57:25;1.60;99.90
8043;DHT22;4064;48.132;11.366;2022-12-07T07:59:50;1.60;99.90
8043;DHT22;4064;48.132;11.366;2022-12-07T08:02:19;1.60;99.90
8043;DHT22;4064;48.132;11.366;2022-12-07T08:04:45;1.60;99.90
8043;DHT22;4064;48.132;11.366;2022-12-07T08:07:12;1.70;99.90
8043;DHT22;4064;48.132;11.366;2022-12-07T08:09:38;1.70;99.90
8043;DHT22;4064;48.132;11.366;2022-12-07T08:12:04;1.70;99.90
8043;DHT22;4064;48.132;11.366;2022-12-07T08:14:30;1.80;99.90
8043;DHT22;4064;48.132;11.366;2022-12-07T08:16:56;1.80;99.90
8043;DHT22;4064;48.132;11.366;2022-12-07T08:19:22;1.80;99.90
8043;DHT22;4064;48.132;11.366;2022-12-07T08:21:48;1.80;99.90
8043;DHT22;4064;48.132;11.366;2022-12-07T08:24:13;1.80;99.90
8043;DHT22;4064;48.132;11.366;2022-12-07T08:26:39;1.90;99.90
8043;DHT22;4064;48.132;11.366;2022-12-07T08:29:05;1.90;99.90
8043;DHT22;4064;48.132;11.366;2022-12-07T08:31:31;1.90;99.90
8043;DHT22;4064;48.132;11.366;2022-12-07T08:33:56;1.90;99.90
8043;DHT22;4064;48.132;11.366;2022-12-07T08:36:23;2.00;99.90
8043;DHT22;4064;48.132;11.366;2022-12-07T08:38:49;2.00;99.90
8043;DHT22;4064;48.132;11.366;2022-12-07T08:41:15;2.10;99.90
8043;DHT22;4064;48.132;11.366;2022-12-07T08:43:41;2.10;99.90
8043;DHT22;4064;48.132;11.366;2022-12-07T08:46:11;2.20;99.90
8043;DHT22;4064;48.132;11.366;2022-12-07T08:51:14;2.20;99.90
8043;DHT22;4064;48.132;11.366;2022-12-07T08:53:41;2.20;99.90
8043;DHT22;4064;48.132;11.366;2022-12-07T08:56:07;2.20;99.90
8043;DHT22;4064;48.132;11.366;2022-12-07T08:58:35;2.30;99.90
8043;DHT22;4064;48.132;11.366;2022-12-07T09:01:01;2.30;99.90
8043;DHT22;4064;48.132;11.366;2022-12-07T09:03:27;2.30;99.90
8043;DHT22;4064;48.132;11.366;2022-12-07T09:05:53;2.30;99.90
8043;DHT22;4064;48.132;11.366;2022-12-07T09:08:20;2.40;99.90
8043;DHT22;4064;48.132;11.366;2022-12-07T09:10:47;2.40;99.90
8043;DHT22;4064;48.132;11.366;2022-12-07T09:13:13;2.40;99.90
8043;DHT22;4064;48.132;11.366;2022-12-07T09:15:38;2.40;99.90
8043;DHT22;4064;48.132;11.366;2022-12-07T09:18:04;2.40;99.90
8043;DHT22;4064;48.132;11.366;2022-12-07T09:20:33;2.50;99.90
8043;DHT22;4064;48.132;11.366;2022-12-07T09:22:59;2.50;99.90
8043;DHT22;4064;48.132;11.366;2022-12-07T09:25:24;2.50;99.90
8043;DHT22;4064;48.132;11.366;2022-12-07T09:27:57;2.60;99.90
8043;DHT22;4064;48.132;11.366;2022-12-07T09:30:23;2.70;99.90
8043;DHT22;4064;48.132;11.366;2022-12-07T09:32:49;2.90;99.90
8043;DHT22;4064;48.132;11.366;2022-12-07T09:35:15;2.90;99.90
8043;DHT22;4064;48.132;11.366;2022-12-07T09:37:40;3.10;99.90
8043;DHT22;4064;48.132;11.366;2022-12-07T09:40:06;3.10;99.90
8043;DHT22;4064;48.132;11.366;2022-12-07T09:45:00;3.20;99.90
8043;DHT22;4064;48.132;11.366;2022-12-07T09:47:27;3.30;99.90
8043;DHT22;4064;48.132;11.366;2022-12-07T09:49:58;3.30;99.90
8043;DHT22;4064;48.132;11.366;2022-12-07T09:52:28;3.30;99.90
8043;DHT22;4064;48.132;11.366;2022-12-07T09:55:03;3.40;99.90
8043;DHT22;4064;48.132;11.366;2022-12-07T09:57:31;3.50;99.90
8043;DHT22;4064;48.132;11.366;2022-12-07T10:00:01;3.50;99.90
8043;DHT22;4064;48.132;11.366;2022-12-07T10:02:40;3.50;99.90
8043;DHT22;4064;48.132;11.366;2022-12-07T10:05:18;3.60;99.90
8043;DHT22;4064;48.132;11.366;2022-12-07T10:07:45;3.70;99.90
8043;DHT22;4064;48.132;11.366;2022-12-07T10:10:17;3.70;99.90
8043;DHT22;4064;48.132;11.366;2022-12-07T10:12:56;3.80;99.90
8043;DHT22;4064;48.132;11.366;2022-12-07T10:15:22;3.80;99.90
8043;DHT22;4064;48.132;11.366;2022-12-07T10:17:52;3.80;99.90
8043;DHT22;4064;48.132;11.366;2022-12-07T10:20:24;3.80;99.90
8043;DHT22;4064;48.132;11.366;2022-12-07T10:23:14;3.90;99.90
8043;DHT22;4064;48.132;11.366;2022-12-07T10:25:41;4.00;99.90
8043;DHT22;4064;48.132;11.366;2022-12-07T10:31:19;4.20;99.90
8043;DHT22;4064;48.132;11.366;2022-12-07T10:33:36;4.30;99.90
8043;DHT22;4064;48.132;11.366;2022-12-07T10:36:22;4.40;99.90
8043;DHT22;4064;48.132;11.366;2022-12-07T10:41:28;4.30;99.90
8043;DHT22;4064;48.132;11.366;2022-12-07T10:43:56;4.40;99.90
8043;DHT22;4064;48.132;11.366;2022-12-07T10:49:18;4.70;99.90
8043;DHT22;4064;48.132;11.366;2022-12-07T10:57:16;5.00;99.90
8043;DHT22;4064;48.132;11.366;2022-12-07T10:59:53;5.20;99.90
8043;DHT22;4064;48.132;11.366;2022-12-07T11:05:35;5.40;99.90
8043;DHT22;4064;48.132;11.366;2022-12-07T11:11:14;5.40;99.90
8043;DHT22;4064;48.132;11.366;2022-12-07T11:13:48;5.70;99.90
8043;DHT22;4064;48.132;11.366;2022-12-07T11:16:43;5.60;99.90
8043;DHT22;4064;48.132;11.366;2022-12-07T11:22:00;6.10;99.90
8043;DHT22;4064;48.132;11.366;2022-12-07T11:25:13;6.10;99.90
8043;DHT22;4064;48.132;11.366;2022-12-07T11:30:55;6.20;99.90
8043;DHT22;4064;48.132;11.366;2022-12-07T11:33:27;6.10;99.90
8043;DHT22;4064;48.132;11.366;2022-12-07T11:41:06;6.10;99.90
8043;DHT22;4064;48.132;11.366;2022-12-07T11:43:55;6.10;99.90
8043;DHT22;4064;48.132;11.366;2022-12-07T11:46:25;6.10;99.90
8043;DHT22;4064;48.132;11.366;2022-12-07T11:51:52;6.00;99.90
8043;DHT22;4064;48.132;11.366;2022-12-07T11:54:29;6.00;99.90
8043;DHT22;4064;48.132;11.366;2022-12-07T11:57:02;5.90;99.90
8043;DHT22;4064;48.132;11.366;2022-12-07T11:59:36;5.80;99.90
8043;DHT22;4064;48.132;11.366;2022-12-07T12:02:28;5.70;99.90
8043;DHT22;4064;48.132;11.366;2022-12-07T12:05:29;5.50;99.90
8043;DHT22;4064;48.132;11.366;2022-12-07T12:08:16;5.50;99.90
8043;DHT22;4064;48.132;11.366;2022-12-07T12:14:00;5.40;99.90
8043;DHT22;4064;48.132;11.366;2022-12-07T12:22:03;5.20;99.90
8043;DHT22;4064;48.132;11.366;2022-12-07T12:24:32;5.20;99.90
8043;DHT22;4064;48.132;11.366;2022-12-07T12:27:06;5.30;99.90
8043;DHT22;4064;48.132;11.366;2022-12-07T12:29:38;5.30;99.90
8043;DHT22;4064;48.132;11.366;2022-12-07T12:37:47;5.60;99.90
8043;DHT22;4064;48.132;11.366;2022-12-07T12:42:54;5.60;99.90
8043;DHT22;4064;48.132;11.366;2022-12-07T12:45:25;5.60;99.90
8043;DHT22;4064;48.132;11.366;2022-12-07T12:47:55;5.60;99.90
8043;DHT22;4064;48.132;11.366;2022-12-07T13:03:31;5.30;99.90
8043;DHT22;4064;48.132;11.366;2022-12-07T13:06:19;5.20;99.90
8043;DHT22;4064;48.132;11.366;2022-12-07T13:08:46;5.10;99.90
8043;DHT22;4064;48.132;11.366;2022-12-07T13:16:57;4.80;99.90
8043;DHT22;4064;48.132;11.366;2022-12-07T13:25:07;4.70;99.90
8043;DHT22;4064;48.132;11.366;2022-12-07T13:27:37;4.70;99.90
8043;DHT22;4064;48.132;11.366;2022-12-07T13:30:17;4.70;99.90
8043;DHT22;4064;48.132;11.366;2022-12-07T13:32:43;4.60;99.90
8043;DHT22;4064;48.132;11.366;2022-12-07T13:35:30;4.50;99.90
8043;DHT22;4064;48.132;11.366;2022-12-07T13:37:56;4.50;99.90
8043;DHT22;4064;48.132;11.366;2022-12-07T13:40:23;4.40;99.90
8043;DHT22;4064;48.132;11.366;2022-12-07T13:43:00;4.40;99.90
8043;DHT22;4064;48.132;11.366;2022-12-07T13:45:31;4.30;99.90
8043;DHT22;4064;48.132;11.366;2022-12-07T13:50:55;4.10;99.90
8043;DHT22;4064;48.132;11.366;2022-12-07T13:53:22;4.00;99.90
8043;DHT22;4064;48.132;11.366;2022-12-07T13:55:48;4.00;99.90
8043;DHT22;4064;48.132;11.366;2022-12-07T13:58:13;3.90;99.90
8043;DHT22;4064;48.132;11.366;2022-12-07T14:00:40;3.80;99.90
8043;DHT22;4064;48.132;11.366;2022-12-07T14:05:42;3.70;99.90
8043;DHT22;4064;48.132;11.366;2022-12-07T14:10:39;3.70;99.90
8043;DHT22;4064;48.132;11.366;2022-12-07T14:14:11;3.60;99.90
8043;DHT22;4064;48.132;11.366;2022-12-07T14:16:35;3.50;99.90
8043;DHT22;4064;48.132;11.366;2022-12-07T14:22:09;3.40;99.90
8043;DHT22;4064;48.132;11.366;2022-12-07T14:24:43;3.40;99.90
8043;DHT22;4064;48.132;11.366;2022-12-07T14:27:20;3.30;99.90
8043;DHT22;4064;48.132;11.366;2022-12-07T14:29:46;3.20;99.90
8043;DHT22;4064;48.132;11.366;2022-12-07T14:32:24;3.20;99.90
8043;DHT22;4064;48.132;11.366;2022-12-07T14:35:09;3.10;99.90
8043;DHT22;4064;48.132;11.366;2022-12-07T14:37:36;3.00;99.90
8043;DHT22;4064;48.132;11.366;2022-12-07T14:40:03;3.00;99.90
8043;DHT22;4064;48.132;11.366;2022-12-07T14:42:30;2.90;99.90
8043;DHT22;4064;48.132;11.366;2022-12-07T14:44:57;2.90;99.90
8043;DHT22;4064;48.132;11.366;2022-12-07T14:47:24;2.80;99.90
8043;DHT22;4064;48.132;11.366;2022-12-07T14:49:50;2.80;99.90
8043;DHT22;4064;48.132;11.366;2022-12-07T14:52:27;2.70;99.90
8043;DHT22;4064;48.132;11.366;2022-12-07T14:54:53;2.60;99.90
8043;DHT22;4064;48.132;11.366;2022-12-07T14:57:19;2.60;99.90
8043;DHT22;4064;48.132;11.366;2022-12-07T14:59:45;2.50;99.90
8043;DHT22;4064;48.132;11.366;2022-12-07T15:02:13;2.50;99.90
8043;DHT22;4064;48.132;11.366;2022-12-07T15:04:39;2.40;99.90
8043;DHT22;4064;48.132;11.366;2022-12-07T15:07:08;2.40;99.90
8043;DHT22;4064;48.132;11.366;2022-12-07T15:09:34;2.30;99.90
8043;DHT22;4064;48.132;11.366;2022-12-07T15:12:00;2.30;99.90
8043;DHT22;4064;48.132;11.366;2022-12-07T15:14:25;2.30;99.90
8043;DHT22;4064;48.132;11.366;2022-12-07T15:16:51;2.40;99.90
8043;DHT22;4064;48.132;11.366;2022-12-07T15:19:22;2.40;99.90
8043;DHT22;4064;48.132;11.366;2022-12-07T15:21:48;2.50;99.90
8043;DHT22;4064;48.132;11.366;2022-12-07T15:24:14;2.50;99.90
8043;DHT22;4064;48.132;11.366;2022-12-07T15:26:40;2.50;99.90
8043;DHT22;4064;48.132;11.366;2022-12-07T15:29:07;2.50;99.90
8043;DHT22;4064;48.132;11.366;2022-12-07T15:31:33;2.50;99.90
8043;DHT22;4064;48.132;11.366;2022-12-07T15:33:58;2.40;99.90
8043;DHT22;4064;48.132;11.366;2022-12-07T15:36:26;2.40;99.90
8043;DHT22;4064;48.132;11.366;2022-12-07T15:38:52;2.30;99.90
8043;DHT22;4064;48.132;11.366;2022-12-07T15:41:18;2.20;99.90
8043;DHT22;4064;48.132;11.366;2022-12-07T15:43:44;2.10;99.90
8043;DHT22;4064;48.132;11.366;2022-12-07T15:46:33;2.00;99.90
8043;DHT22;4064;48.132;11.366;2022-12-07T15:48:59;2.00;99.90
8043;DHT22;4064;48.132;11.366;2022-12-07T15:51:25;2.00;99.90
8043;DHT22;4064;48.132;11.366;2022-12-07T15:53:52;1.90;99.90
8043;DHT22;4064;48.132;11.366;2022-12-07T15:56:17;1.80;99.90
8043;DHT22;4064;48.132;11.366;2022-12-07T15:58:43;1.80;99.90
8043;DHT22;4064;48.132;11.366;2022-12-07T16:01:17;1.70;99.90
8043;DHT22;4064;48.132;11.366;2022-12-07T16:03:44;1.70;99.90
8043;DHT22;4064;48.132;11.366;2022-12-07T16:06:10;1.60;99.90
8043;DHT22;4064;48.132;11.366;2022-12-07T16:08:36;1.60;99.90
8043;DHT22;4064;48.132;11.366;2022-12-07T16:11:06;1.60;99.90
8043;DHT22;4064;48.132;11.366;2022-12-07T16:13:32;1.60;99.90
8043;DHT22;4064;48.132;11.366;2022-12-07T16:16:01;1.60;99.90
8043;DHT22;4064;48.132;11.366;2022-12-07T16:18:27;1.60;99.90
8043;DHT22;4064;48.132;11.366;2022-12-07T16:20:52;1.60;99.90
8043;DHT22;4064;48.132;11.366;2022-12-07T16:23:18;1.60;99.90
8043;DHT22;4064;48.132;11.366;2022-12-07T16:25:44;1.60;99.90
8043;DHT22;4064;48.132;11.366;2022-12-07T16:28:09;1.50;99.90
8043;DHT22;4064;48.132;11.366;2022-12-07T16:30:35;1.50;99.90
8043;DHT22;4064;48.132;11.366;2022-12-07T16:33:00;1.40;99.90
8043;DHT22;4064;48.132;11.366;2022-12-07T16:35:27;1.40;99.90
8043;DHT22;4064;48.132;11.366;2022-12-07T16:37:52;1.40;99.90
8043;DHT22;4064;48.132;11.366;2022-12-07T16:40:18;1.30;99.90
8043;DHT22;4064;48.132;11.366;2022-12-07T16:42:43;1.20;99.90
8043;DHT22;4064;48.132;11.366;2022-12-07T16:45:09;1.20;99.90
8043;DHT22;4064;48.132;11.366;2022-12-07T16:47:37;1.10;99.90
8043;DHT22;4064;48.132;11.366;2022-12-07T16:50:03;1.00;99.90
8043;DHT22;4064;48.132;11.366;2022-12-07T16:52:29;1.00;99.90
8043;DHT22;4064;48.132;11.366;2022-12-07T16:54:55;0.90;99.90
8043;DHT22;4064;48.132;11.366;2022-12-07T16:57:20;0.80;99.90
8043;DHT22;4064;48.132;11.366;2022-12-07T16:59:46;0.70;99.90
8043;DHT22;4064;48.132;11.366;2022-12-07T17:02:12;0.70;99.90
8043;DHT22;4064;48.132;11.366;2022-12-07T17:04:38;0.60;99.90
8043;DHT22;4064;48.132;11.366;2022-12-07T17:07:08;0.60;99.90
8043;DHT22;4064;48.132;11.366;2022-12-07T17:09:34;0.50;99.90
8043;DHT22;4064;48.132;11.366;2022-12-07T17:12:00;0.60;99.90
8043;DHT22;4064;48.132;11.366;2022-12-07T17:14:26;0.60;99.90
8043;DHT22;4064;48.132;11.366;2022-12-07T17:17:10;0.50;99.90
8043;DHT22;4064;48.132;11.366;2022-12-07T17:19:35;0.60;99.90
8043;DHT22;4064;48.132;11.366;2022-12-07T17:22:01;0.50;99.90
8043;DHT22;4064;48.132;11.366;2022-12-07T17:24:27;0.50;99.90
8043;DHT22;4064;48.132;11.366;2022-12-07T17:26:52;0.50;99.90
8043;DHT22;4064;48.132;11.366;2022-12-07T17:29:18;0.50;99.90
8043;DHT22;4064;48.132;11.366;2022-12-07T17:31:46;0.60;99.90
8043;DHT22;4064;48.132;11.366;2022-12-07T17:34:13;0.50;99.90
8043;DHT22;4064;48.132;11.366;2022-12-07T17:36:39;0.50;99.90
8043;DHT22;4064;48.132;11.366;2022-12-07T17:39:09;0.60;99.90
8043;DHT22;4064;48.132;11.366;2022-12-07T17:41:36;0.60;99.90
8043;DHT22;4064;48.132;11.366;2022-12-07T17:44:21;0.60;99.90
8043;DHT22;4064;48.132;11.366;2022-12-07T17:46:50;0.50;99.90
8043;DHT22;4064;48.132;11.366;2022-12-07T17:49:20;0.50;99.90
8043;DHT22;4064;48.132;11.366;2022-12-07T17:51:46;0.50;99.90
8043;DHT22;4064;48.132;11.366;2022-12-07T17:54:31;0.50;99.90
8043;DHT22;4064;48.132;11.366;2022-12-07T17:56:56;0.60;99.90
8043;DHT22;4064;48.132;11.366;2022-12-07T17:59:22;0.60;99.90
8043;DHT22;4064;48.132;11.366;2022-12-07T18:01:48;0.50;99.90
8043;DHT22;4064;48.132;11.366;2022-12-07T18:04:14;0.60;99.90
8043;DHT22;4064;48.132;11.366;2022-12-07T18:06:39;0.60;99.90
8043;DHT22;4064;48.132;11.366;2022-12-07T18:09:06;0.60;99.90
8043;DHT22;4064;48.132;11.366;2022-12-07T18:11:32;0.60;99.90
8043;DHT22;4064;48.132;11.366;2022-12-07T18:13:58;0.60;99.90